Time;durP1;ratioP1;P1;durP2;ratioP2;P2;SDS_P1;SDS_P2;PMS_P1;PMS_P2;Temp;Humidity;BMP_temperature;BMP_pressure;BME280_temperature;BME280_humidity;BME280_pressure;Samples;Min_cycle;Max_cycle;Signal;HPM_P1;HPM_P2
2022/07/27 00:01:31;;;;;;;1.98;1.80;;;22.40;68.70;;;;;;5071836;28;20055;-57
2022/07/27 00:03:56;;;;;;;1.95;1.85;;;22.40;68.70;;;;;;5075973;28;20024;-56
2022/07/27 00:06:22;;;;;;;2.28;2.08;;;22.40;68.80;;;;;;5063026;28;20074;-57
2022/07/27 00:08:48;;;;;;;1.90;1.80;;;22.40;68.60;;;;;;5072665;28;20028;-57
2022/07/27 00:11:13;;;;;;;2.33;2.13;;;22.40;68.60;;;;;;5071650;28;20028;-57
2022/07/27 00:13:39;;;;;;;2.05;1.95;;;22.40;68.70;;;;;;5076799;28;20081;-57
2022/07/27 00:16:05;;;;;;;2.65;2.45;;;22.40;68.70;;;;;;5078859;28;20115;-57
2022/07/27 00:18:32;;;;;;;2.13;2.00;;;22.30;68.60;;;;;;5069365;28;20111;-57
2022/07/27 00:20:57;;;;;;;2.42;2.20;;;22.40;68.70;;;;;;5073666;28;20456;-57
2022/07/27 00:23:23;;;;;;;2.67;2.47;;;22.40;68.60;;;;;;5072913;28;20071;-57
2022/07/27 00:25:49;;;;;;;2.58;2.38;;;22.30;68.60;;;;;;5075986;28;20062;-57
2022/07/27 00:28:14;;;;;;;2.22;2.03;;;22.30;68.60;;;;;;5067232;28;20039;-57
2022/07/27 00:30:40;;;;;;;2.67;2.47;;;22.30;68.70;;;;;;5076068;28;20052;-57
2022/07/27 00:33:06;;;;;;;2.58;2.35;;;22.30;68.60;;;;;;5076926;28;20024;-57
2022/07/27 00:35:32;;;;;;;2.47;2.28;;;22.30;68.70;;;;;;5071451;28;20025;-57
2022/07/27 00:37:57;;;;;;;2.38;2.17;;;22.30;68.80;;;;;;5070205;28;20048;-57
2022/07/27 00:40:23;;;;;;;2.17;2.05;;;22.30;68.90;;;;;;5074196;28;20411;-57
2022/07/27 00:42:49;;;;;;;2.25;2.08;;;22.30;68.90;;;;;;5072775;28;20168;-57
2022/07/27 00:45:14;;;;;;;1.83;1.70;;;22.30;68.90;;;;;;5068703;28;20048;-57
2022/07/27 00:47:40;;;;;;;2.13;1.80;;;22.20;68.80;;;;;;5076130;28;20021;-57
2022/07/27 00:50:06;;;;;;;2.00;1.90;;;22.30;69.60;;;;;;5071874;28;20037;-56
2022/07/27 00:52:33;;;;;;;1.80;1.70;;;22.20;69.00;;;;;;5068761;28;20031;-57
2022/07/27 00:54:59;;;;;;;2.20;2.00;;;22.20;68.90;;;;;;5072568;28;20325;-57
2022/07/27 00:57:26;;;;;;;2.28;2.08;;;22.30;69.00;;;;;;5074548;28;20033;-57
2022/07/27 00:59:52;;;;;;;2.20;2.00;;;22.20;69.60;;;;;;5066789;28;20472;-57
2022/07/27 01:02:18;;;;;;;2.10;2.00;;;22.20;68.90;;;;;;5069004;28;20429;-56
2022/07/27 01:04:44;;;;;;;2.13;1.92;;;22.20;69.00;;;;;;5070495;28;20127;-57
2022/07/27 01:07:10;;;;;;;2.28;2.15;;;22.20;69.00;;;;;;5072184;28;20025;-57
2022/07/27 01:12:21;;;;;;;1.88;1.77;;;22.20;69.00;;;;;;5073196;28;20032;-57
2022/07/27 01:14:48;;;;;;;2.10;1.90;;;22.20;69.00;;;;;;5071777;28;20024;-57
2022/07/27 01:17:15;;;;;;;2.55;2.35;;;22.20;69.10;;;;;;5072971;28;22974;-57
2022/07/27 01:19:41;;;;;;;2.35;2.15;;;22.20;69.30;;;;;;5070970;28;20028;-57
2022/07/27 01:22:07;;;;;;;2.50;2.30;;;22.20;69.20;;;;;;5068574;28;20496;-57
2022/07/27 01:24:33;;;;;;;2.15;1.98;;;22.10;69.20;;;;;;5070959;28;20041;-57
2022/07/27 01:27:00;;;;;;;2.83;2.53;;;22.10;69.20;;;;;;5067231;28;20039;-57
2022/07/27 01:29:27;;;;;;;2.80;2.50;;;22.10;69.20;;;;;;5070547;28;20030;-57
2022/07/27 01:31:52;;;;;;;2.72;2.53;;;22.10;70.10;;;;;;5071746;28;20098;-57
2022/07/27 01:34:18;;;;;;;2.42;2.22;;;22.00;69.40;;;;;;5068917;28;20025;-56
2022/07/27 01:36:44;;;;;;;2.45;2.25;;;22.00;69.40;;;;;;5069532;28;20492;-56
2022/07/27 01:39:11;;;;;;;2.90;2.65;;;22.00;69.70;;;;;;5073777;28;20085;-57
2022/07/27 01:41:37;;;;;;;2.28;2.08;;;22.00;69.60;;;;;;5066764;28;20020;-57
2022/07/27 01:44:03;;;;;;;2.95;2.10;;;22.00;69.80;;;;;;5069230;28;20431;-57
2022/07/27 01:46:28;;;;;;;2.13;1.92;;;22.00;69.60;;;;;;5070536;28;20036;-57
2022/07/27 01:48:54;;;;;;;2.20;2.00;;;21.90;69.80;;;;;;5070317;28;20031;-57
2022/07/27 01:51:20;;;;;;;2.78;2.28;;;21.90;69.90;;;;;;5069714;28;20416;-57
2022/07/27 01:53:45;;;;;;;2.55;2.17;;;21.90;69.90;;;;;;5067454;28;20025;-56
2022/07/27 01:56:12;;;;;;;2.65;2.38;;;21.90;69.90;;;;;;5070745;28;20028;-57
2022/07/27 01:58:39;;;;;;;2.40;2.20;;;21.90;69.80;;;;;;5069657;28;20028;-57
2022/07/27 02:01:05;;;;;;;2.17;2.00;;;21.90;69.80;;;;;;5069212;28;20036;-54
2022/07/27 02:03:32;;;;;;;2.38;2.08;;;21.90;69.90;;;;;;5070467;28;20380;-57
2022/07/27 02:05:57;;;;;;;3.58;2.55;;;21.90;69.90;;;;;;5068915;28;20029;-57
2022/07/27 02:08:23;;;;;;;2.17;1.98;;;21.90;69.90;;;;;;5071238;28;20032;-57
2022/07/27 02:13:33;;;;;;;2.70;2.50;;;21.80;70.00;;;;;;5067612;28;20445;-57
2022/07/27 02:15:59;;;;;;;2.38;2.10;;;21.80;70.00;;;;;;5071987;28;20036;-57
2022/07/27 02:18:26;;;;;;;2.22;2.03;;;21.80;70.00;;;;;;5067519;28;20025;-57
2022/07/27 02:20:52;;;;;;;2.15;1.95;;;21.80;70.00;;;;;;5072075;28;20016;-56
2022/07/27 02:23:17;;;;;;;2.40;2.10;;;21.80;70.10;;;;;;5070905;28;20028;-57
2022/07/27 02:25:43;;;;;;;2.20;2.08;;;21.70;70.10;;;;;;5070581;28;20488;-57
2022/07/27 02:28:09;;;;;;;2.33;2.13;;;21.80;70.00;;;;;;5069473;28;20033;-56
2022/07/27 02:30:34;;;;;;;2.30;2.10;;;21.70;70.10;;;;;;5068328;28;20464;-57
2022/07/27 02:33:00;;;;;;;2.00;1.90;;;21.70;70.10;;;;;;5068170;28;20021;-57
2022/07/27 02:35:26;;;;;;;1.95;1.85;;;21.70;70.20;;;;;;5073923;28;20028;-57
2022/07/27 02:37:52;;;;;;;1.95;1.85;;;21.70;70.20;;;;;;5068949;28;20031;-57
2022/07/27 02:40:18;;;;;;;2.72;2.33;;;21.70;70.20;;;;;;5066626;28;20056;-57
2022/07/27 02:42:45;;;;;;;3.00;2.70;;;21.70;70.20;;;;;;5067858;28;20032;-57
2022/07/27 02:45:10;;;;;;;2.58;2.15;;;21.70;70.20;;;;;;5069745;28;20052;-56
2022/07/27 02:47:38;;;;;;;2.47;2.28;;;21.80;70.20;;;;;;5069660;28;20016;-57
2022/07/27 02:50:05;;;;;;;2.50;2.30;;;21.80;70.20;;;;;;5067971;28;20387;-57
2022/07/27 02:52:31;;;;;;;2.47;2.28;;;21.80;70.20;;;;;;5066586;28;20104;-57
2022/07/27 02:54:57;;;;;;;2.55;2.35;;;21.80;70.10;;;;;;5071858;28;20059;-57
2022/07/27 02:57:23;;;;;;;2.30;2.10;;;21.80;70.10;;;;;;5066168;28;20506;-57
2022/07/27 02:59:48;;;;;;;2.35;2.15;;;21.80;70.10;;;;;;5071527;28;20027;-57
2022/07/27 03:02:14;;;;;;;2.28;2.15;;;21.80;70.20;;;;;;5070795;28;20028;-57
2022/07/27 03:04:40;;;;;;;3.55;2.60;;;21.80;70.00;;;;;;5074771;28;20029;-57
2022/07/27 03:07:05;;;;;;;2.00;1.90;;;21.80;70.10;;;;;;5077997;28;20027;-57
2022/07/27 03:09:31;;;;;;;2.70;2.40;;;21.90;70.20;;;;;;5072590;28;20024;-57
2022/07/27 03:11:57;;;;;;;2.45;2.25;;;21.90;70.20;;;;;;5071849;28;20373;-57
2022/07/27 03:14:22;;;;;;;2.40;2.20;;;21.90;70.20;;;;;;5071883;28;20017;-55
2022/07/27 03:16:48;;;;;;;2.63;2.42;;;22.00;70.40;;;;;;5074676;28;20372;-57
2022/07/27 03:19:14;;;;;;;3.30;2.58;;;22.00;70.50;;;;;;5071442;28;20040;-57
2022/07/27 03:21:39;;;;;;;2.40;2.20;;;22.10;70.50;;;;;;5070363;28;20059;-57
2022/07/27 03:24:05;;;;;;;2.55;2.33;;;22.10;70.60;;;;;;5072990;28;20037;-57
2022/07/27 03:26:32;;;;;;;2.58;2.38;;;22.20;70.80;;;;;;5067833;28;20465;-57
2022/07/27 03:28:58;;;;;;;2.72;2.45;;;22.30;70.90;;;;;;5073535;28;20492;-57
2022/07/27 03:31:24;;;;;;;2.85;2.55;;;22.40;71.10;;;;;;5071380;28;20053;-56
2022/07/27 03:33:49;;;;;;;2.60;2.40;;;22.50;71.20;;;;;;5073001;28;20024;-57
2022/07/27 03:36:15;;;;;;;2.60;2.40;;;22.60;71.50;;;;;;5071829;28;20052;-57
2022/07/27 03:38:41;;;;;;;3.03;2.72;;;22.80;71.90;;;;;;5070785;28;20408;-57
2022/07/27 03:41:06;;;;;;;2.80;2.60;;;22.90;72.10;;;;;;5072704;28;20503;-57
2022/07/27 03:43:32;;;;;;;2.58;2.38;;;23.10;72.20;;;;;;5069479;28;20028;-57
2022/07/27 03:45:58;;;;;;;2.90;2.60;;;23.30;72.40;;;;;;5071132;28;20036;-57
2022/07/27 03:48:26;;;;;;;2.60;2.40;;;23.50;72.70;;;;;;5073034;28;20063;-57
2022/07/27 03:50:51;;;;;;;2.50;2.30;;;23.80;73.10;;;;;;5070845;28;20056;-57
2022/07/27 03:53:20;;;;;;;2.50;2.30;;;24.00;73.00;;;;;;5072632;28;20113;-57
2022/07/27 03:55:49;;;;;;;2.35;2.15;;;24.40;72.70;;;;;;5074069;28;20165;-57
2022/07/27 03:58:15;;;;;;;2.40;2.20;;;24.80;72.20;;;;;;5071104;28;20026;-58
2022/07/27 04:00:42;;;;;;;2.42;2.22;;;25.30;71.30;;;;;;5073448;28;20047;-58
2022/07/27 04:03:07;;;;;;;2.45;2.25;;;25.90;70.30;;;;;;5074080;28;20097;-57
2022/07/27 04:05:33;;;;;;;2.83;2.15;;;26.70;69.10;;;;;;5072702;28;20036;-58
2022/07/27 04:07:59;;;;;;;2.45;2.25;;;27.50;67.60;;;;;;5072806;28;20036;-58
2022/07/27 04:10:25;;;;;;;2.10;2.00;;;28.40;65.90;;;;;;5073001;28;20028;-58
2022/07/27 04:12:51;;;;;;;2.47;2.28;;;29.30;64.10;;;;;;5071023;28;20028;-58
2022/07/27 04:15:17;;;;;;;2.42;2.17;;;30.10;62.10;;;;;;5071564;28;20020;-58
2022/07/27 04:17:44;;;;;;;2.35;2.15;;;30.90;60.50;;;;;;5071025;28;20056;-58
2022/07/27 04:20:10;;;;;;;1.92;1.83;;;31.60;59.40;;;;;;5074254;28;20388;-58
2022/07/27 04:22:36;;;;;;;2.00;1.90;;;32.20;58.20;;;;;;5073106;28;20032;-56
2022/07/27 04:25:02;;;;;;;2.63;2.20;;;32.90;57.10;;;;;;5069643;28;20047;-56
2022/07/27 04:27:28;;;;;;;3.33;3.03;;;33.60;56.40;;;;;;5077917;28;20021;-56
2022/07/27 04:29:53;;;;;;;2.90;2.70;;;34.10;55.40;;;;;;5070508;28;20040;-56
2022/07/27 04:32:19;;;;;;;4.65;3.15;;;34.70;54.50;;;;;;5075112;28;20033;-56
2022/07/27 04:34:44;;;;;;;5.57;3.47;;;35.20;53.70;;;;;;5074490;28;20017;-56
2022/07/27 04:37:10;;;;;;;17.38;9.75;;;35.60;52.90;;;;;;5068456;28;20089;-56
2022/07/27 04:39:36;;;;;;;5.05;3.70;;;36.10;52.50;;;;;;5067551;28;20541;-58
2022/07/27 04:42:01;;;;;;;2.70;2.20;;;36.40;51.80;;;;;;5067210;28;20407;-58
2022/07/27 04:44:27;;;;;;;2.00;1.88;;;36.80;51.40;;;;;;5075282;28;20044;-57
2022/07/27 04:46:52;;;;;;;1.75;1.65;;;37.20;50.90;;;;;;5069897;28;20068;-58
2022/07/27 04:49:18;;;;;;;2.30;2.10;;;37.50;50.40;;;;;;5071071;28;20891;-58
2022/07/27 04:51:44;;;;;;;2.10;2.00;;;37.80;50.00;;;;;;5073178;28;20463;-58
2022/07/27 04:54:10;;;;;;;1.83;1.73;;;38.10;49.50;;;;;;5069148;28;20025;-58
2022/07/27 04:56:36;;;;;;;1.92;1.73;;;38.30;49.00;;;;;;5071072;28;20107;-58
2022/07/27 04:59:02;;;;;;;2.22;1.73;;;38.50;48.70;;;;;;5067294;28;20116;-59
2022/07/27 05:01:28;;;;;;;1.80;1.70;;;38.70;48.40;;;;;;5079795;28;20115;-56
2022/07/27 05:03:53;;;;;;;2.13;1.92;;;39.00;48.20;;;;;;5073423;28;20017;-58
2022/07/27 05:06:19;;;;;;;2.10;1.90;;;39.20;47.80;;;;;;5063065;28;20028;-58
2022/07/27 05:08:45;;;;;;;1.70;1.60;;;39.30;47.50;;;;;;5067461;28;20040;-57
2022/07/27 05:11:10;;;;;;;1.90;1.75;;;39.60;47.30;;;;;;5071379;28;20020;-58
2022/07/27 05:13:39;;;;;;;2.13;1.80;;;39.80;47.00;;;;;;5070607;28;20016;-58
2022/07/27 05:16:09;;;;;;;2.35;2.10;;;39.90;46.60;;;;;;5065700;28;20033;-58
2022/07/27 05:18:38;;;;;;;3.17;2.40;;;40.00;46.20;;;;;;5063447;28;20490;-58
2022/07/27 05:21:05;;;;;;;2.28;2.08;;;40.10;45.90;;;;;;5068263;28;20032;-58
2022/07/27 05:23:32;;;;;;;1.95;1.85;;;40.10;45.50;;;;;;5065730;28;20059;-58
2022/07/27 05:25:58;;;;;;;2.00;1.80;;;40.10;45.40;;;;;;5067700;28;20059;-58
2022/07/27 05:28:23;;;;;;;2.40;2.20;;;40.20;45.10;;;;;;5060899;28;20064;-58
2022/07/27 05:30:49;;;;;;;2.45;2.00;;;40.20;44.50;;;;;;5070647;28;20691;-58
2022/07/27 05:33:15;;;;;;;1.90;1.80;;;40.10;44.00;;;;;;5065878;28;20032;-58
2022/07/27 05:35:41;;;;;;;1.67;1.58;;;39.80;43.70;;;;;;5066400;28;20480;-58
2022/07/27 05:38:06;;;;;;;2.00;1.90;;;39.10;43.80;;;;;;5073264;28;20029;-58
2022/07/27 05:40:32;;;;;;;2.00;1.90;;;38.30;44.30;;;;;;5063024;28;20477;-58
2022/07/27 05:42:58;;;;;;;4.72;2.97;;;37.30;45.00;;;;;;5069947;28;20024;-58
2022/07/27 05:45:24;;;;;;;3.72;2.92;;;36.30;45.80;;;;;;5066989;28;20040;-58
2022/07/27 05:47:51;;;;;;;3.67;3.25;;;35.40;46.70;;;;;;5068431;28;20048;-58
2022/07/27 05:50:16;;;;;;;2.92;2.50;;;34.60;47.40;;;;;;5065613;28;20089;-57
2022/07/27 05:52:43;;;;;;;3.38;2.75;;;33.80;48.00;;;;;;5064552;28;20032;-58
2022/07/27 05:55:10;;;;;;;4.30;2.83;;;33.20;48.80;;;;;;5072482;28;20041;-58
2022/07/27 05:57:36;;;;;;;2.60;2.40;;;32.60;49.50;;;;;;5067102;28;20042;-57
2022/07/27 06:00:04;;;;;;;3.22;2.35;;;32.20;50.10;;;;;;5069276;28;20021;-58
2022/07/27 06:02:30;;;;;;;2.55;2.30;;;31.70;50.70;;;;;;5058993;28;20031;-58
2022/07/27 06:04:56;;;;;;;2.42;2.22;;;31.40;51.40;;;;;;5065540;28;20047;-59
2022/07/27 06:10:07;;;;;;;2.33;2.10;;;30.70;52.20;;;;;;5053909;28;20101;-58
2022/07/27 06:12:40;;;;;;;2.50;2.30;;;30.50;52.80;;;;;;5057851;28;21022;-58
2022/07/27 06:15:08;;;;;;;2.45;2.17;;;30.30;53.00;;;;;;5056892;28;20029;-58
2022/07/27 06:17:34;;;;;;;2.72;2.28;;;30.10;53.20;;;;;;5053105;28;20033;-54
2022/07/27 06:19:59;;;;;;;2.92;2.60;;;29.80;53.50;;;;;;5054429;28;20040;-58
2022/07/27 06:22:25;;;;;;;2.50;2.30;;;29.70;54.00;;;;;;5046363;28;20032;-56
2022/07/27 06:24:51;;;;;;;2.67;2.47;;;29.50;54.40;;;;;;5050573;28;20024;-57
2022/07/27 06:27:17;;;;;;;2.33;2.05;;;29.30;54.60;;;;;;5049017;28;20031;-58
2022/07/27 06:29:42;;;;;;;2.30;2.10;;;29.20;54.90;;;;;;5045749;28;20039;-56
2022/07/27 06:32:08;;;;;;;2.75;2.45;;;29.10;55.30;;;;;;5047501;28;20034;-56
2022/07/27 06:34:34;;;;;;;2.65;2.17;;;29.00;55.60;;;;;;5048071;28;20067;-56
2022/07/27 06:37:00;;;;;;;2.10;1.90;;;28.90;55.80;;;;;;5051083;28;20029;-56
2022/07/27 06:39:26;;;;;;;2.00;1.90;;;28.80;56.00;;;;;;5054903;28;20082;-58
2022/07/27 06:41:52;;;;;;;2.30;2.10;;;28.70;56.20;;;;;;5048549;28;20036;-58
2022/07/27 06:44:17;;;;;;;1.95;1.85;;;28.60;56.30;;;;;;5051259;28;21054;-58
2022/07/27 06:46:44;;;;;;;2.10;1.90;;;28.50;56.40;;;;;;5048460;28;20056;-57
2022/07/27 06:49:10;;;;;;;2.05;1.85;;;28.40;56.60;;;;;;5054808;28;20029;-58
2022/07/27 06:51:37;;;;;;;2.88;2.47;;;28.40;56.90;;;;;;5055085;28;20512;-58
2022/07/27 06:54:03;;;;;;;2.30;2.10;;;28.30;57.10;;;;;;5054410;28;20108;-56
2022/07/27 06:56:30;;;;;;;1.98;1.85;;;28.30;57.30;;;;;;5050194;28;20561;-59
2022/07/27 06:58:55;;;;;;;2.22;2.03;;;28.30;57.30;;;;;;5047822;28;20056;-57
2022/07/27 07:01:22;;;;;;;2.53;2.28;;;28.20;57.40;;;;;;5049943;28;20062;-57
2022/07/27 07:03:47;;;;;;;2.33;2.08;;;28.20;57.50;;;;;;5043966;28;20838;-57
2022/07/27 07:06:13;;;;;;;2.40;2.20;;;28.20;57.50;;;;;;5045108;28;20029;-56
2022/07/27 07:08:39;;;;;;;2.30;2.10;;;28.20;57.50;;;;;;5048974;28;20029;-57
2022/07/27 07:11:05;;;;;;;3.13;1.95;;;28.10;57.60;;;;;;5043568;28;20025;-59
2022/07/27 07:13:30;;;;;;;2.20;2.00;;;28.10;57.80;;;;;;5043812;28;20033;-56
2022/07/27 07:15:56;;;;;;;2.15;2.03;;;28.10;58.00;;;;;;5045683;28;20032;-55
2022/07/27 07:18:22;;;;;;;2.70;2.50;;;28.00;58.20;;;;;;5049256;28;20452;-57
2022/07/27 07:20:47;;;;;;;3.00;2.70;;;28.00;58.50;;;;;;5051291;28;20557;-57
2022/07/27 07:23:13;;;;;;;2.78;2.58;;;27.90;58.80;;;;;;5042682;28;20396;-56
2022/07/27 07:25:39;;;;;;;2.92;2.65;;;27.90;59.10;;;;;;5048785;28;20056;-59
2022/07/27 07:28:06;;;;;;;2.30;2.10;;;27.90;59.30;;;;;;5045798;28;20483;-58
2022/07/27 07:30:32;;;;;;;2.78;2.50;;;27.80;59.30;;;;;;5050272;28;20025;-58
2022/07/27 07:32:58;;;;;;;2.53;2.33;;;27.80;59.50;;;;;;5045446;28;20036;-58
2022/07/27 07:35:25;;;;;;;2.63;2.42;;;27.80;59.70;;;;;;5047787;28;20032;-59
2022/07/27 07:37:51;;;;;;;2.95;2.67;;;27.80;60.50;;;;;;5041552;28;20037;-59
2022/07/27 07:40:18;;;;;;;2.92;2.70;;;27.80;60.00;;;;;;5044444;28;20024;-58
2022/07/27 07:42:52;;;;;;;3.72;2.80;;;27.80;60.20;;;;;;5048317;28;20032;-59
2022/07/27 07:45:19;;;;;;;2.97;2.63;;;27.80;60.50;;;;;;5047402;28;20053;-57
2022/07/27 07:47:44;;;;;;;2.72;2.53;;;27.80;60.30;;;;;;5039970;28;20036;-58
2022/07/27 07:50:10;;;;;;;2.38;2.17;;;27.80;60.30;;;;;;5041393;28;20082;-55
2022/07/27 07:52:36;;;;;;;2.55;2.35;;;27.70;60.30;;;;;;5045384;28;20789;-55
2022/07/27 07:55:01;;;;;;;3.25;2.38;;;27.80;60.50;;;;;;5047950;28;20032;-56
2022/07/27 07:57:27;;;;;;;2.72;2.47;;;27.70;60.40;;;;;;5043881;28;20035;-57
2022/07/27 07:59:53;;;;;;;3.47;2.70;;;27.80;61.20;;;;;;5046113;28;20025;-57
2022/07/27 08:02:20;;;;;;;2.70;2.50;;;27.70;60.70;;;;;;5048093;28;20085;-57
2022/07/27 08:04:46;;;;;;;2.70;2.50;;;27.70;60.90;;;;;;5036566;28;20047;-57
2022/07/27 08:07:12;;;;;;;2.65;2.33;;;27.80;61.00;;;;;;5041922;28;21073;-57
2022/07/27 08:09:37;;;;;;;2.92;2.63;;;27.80;61.10;;;;;;5047932;28;20024;-57
2022/07/27 08:12:03;;;;;;;2.90;2.60;;;27.80;61.00;;;;;;5044295;28;20024;-58
2022/07/27 08:14:29;;;;;;;2.55;2.35;;;27.80;61.10;;;;;;5052796;28;20036;-58
2022/07/27 08:16:55;;;;;;;2.63;2.40;;;27.80;61.00;;;;;;5045670;28;20876;-57
2022/07/27 08:19:21;;;;;;;2.67;2.45;;;27.80;60.90;;;;;;5037923;28;20048;-58
2022/07/27 08:21:46;;;;;;;2.53;2.33;;;27.80;60.90;;;;;;5044925;28;20033;-59
2022/07/27 08:24:12;;;;;;;2.35;2.15;;;27.70;60.90;;;;;;5043315;28;20032;-58
2022/07/27 08:26:38;;;;;;;2.70;2.30;;;27.70;60.80;;;;;;5048836;28;20037;-59
2022/07/27 08:29:04;;;;;;;2.55;2.35;;;27.70;60.90;;;;;;5040214;28;20052;-58
2022/07/27 08:31:29;;;;;;;2.40;2.20;;;27.70;60.70;;;;;;5048403;28;20035;-58
2022/07/27 08:33:55;;;;;;;2.60;2.40;;;27.70;60.50;;;;;;5041436;28;20036;-58
2022/07/27 08:36:21;;;;;;;2.50;2.22;;;27.70;60.40;;;;;;5054157;28;20653;-59
2022/07/27 08:38:46;;;;;;;2.40;2.20;;;27.70;60.60;;;;;;5047489;28;20032;-59
2022/07/27 08:41:14;;;;;;;2.45;2.25;;;27.60;60.60;;;;;;5048074;28;21064;-58
2022/07/27 08:43:44;;;;;;;2.63;2.42;;;27.60;60.80;;;;;;5047968;28;20028;-57
2022/07/27 08:46:11;;;;;;;2.70;2.50;;;27.60;60.70;;;;;;5040805;28;20063;-58
2022/07/27 08:48:38;;;;;;;2.30;2.10;;;27.60;60.70;;;;;;5042285;28;20028;-57
2022/07/27 08:51:08;;;;;;;2.75;2.50;;;27.50;60.80;;;;;;5045438;28;20128;-57
2022/07/27 08:53:34;;;;;;;2.57;2.37;;;27.50;60.90;;;;;;5047253;28;20063;-57
2022/07/27 08:56:00;;;;;;;3.20;2.90;;;27.50;60.90;;;;;;5044854;28;20368;-56
2022/07/27 08:58:26;;;;;;;3.05;2.67;;;27.40;61.00;;;;;;5041364;28;20075;-56
2022/07/27 09:00:52;;;;;;;2.72;2.50;;;27.40;60.90;;;;;;5040016;28;20442;-57
2022/07/27 09:03:20;;;;;;;2.80;2.60;;;27.40;60.80;;;;;;5046566;28;20091;-56
2022/07/27 09:05:54;;;;;;;2.65;2.45;;;27.40;60.80;;;;;;5042592;28;20035;-57
2022/07/27 09:08:23;;;;;;;2.50;2.30;;;27.30;60.90;;;;;;5036844;28;20024;-56
2022/07/27 09:10:49;;;;;;;2.50;2.30;;;27.30;61.00;;;;;;5040192;28;20040;-56
2022/07/27 09:13:26;;;;;;;2.55;2.10;;;27.30;61.10;;;;;;5038836;28;20110;-56
2022/07/27 09:15:58;;;;;;;2.55;2.10;;;27.20;61.10;;;;;;5042283;28;20082;-56
2022/07/27 09:18:29;;;;;;;2.70;2.50;;;27.20;61.20;;;;;;5053339;28;20085;-56
2022/07/27 09:21:10;;;;;;;;;;;27.20;61.20;;;;;;5045802;28;20028;-56
2022/07/27 09:23:39;;;;;;;2.25;2.05;;;27.10;61.30;;;;;;5041920;28;19923;-56
2022/07/27 09:26:26;;;;;;;2.00;1.90;;;27.10;61.00;;;;;;5038495;28;20043;-56
2022/07/27 09:28:57;;;;;;;2.58;2.38;;;27.10;61.10;;;;;;5043621;28;20274;-57
2022/07/27 09:31:23;;;;;;;2.42;2.22;;;27.10;61.30;;;;;;5045880;28;21985;-56
2022/07/27 09:33:51;;;;;;;2.50;2.30;;;27.10;61.30;;;;;;5047645;28;21012;-57
2022/07/27 09:36:18;;;;;;;2.42;2.22;;;27.00;61.30;;;;;;5050681;28;21083;-58
2022/07/27 09:39:01;;;;;;;2.60;2.40;;;27.00;61.30;;;;;;5045027;28;20056;-56
2022/07/27 09:41:37;;;;;;;2.97;2.40;;;27.00;61.50;;;;;;5047773;28;20029;-57
2022/07/27 09:44:02;;;;;;;3.13;2.58;;;27.00;61.60;;;;;;5039390;28;20743;-56
2022/07/27 09:46:34;;;;;;;2.65;2.45;;;27.00;61.50;;;;;;5045642;28;20051;-55
2022/07/27 09:49:01;;;;;;;2.58;2.38;;;27.00;61.70;;;;;;5047664;28;20033;-56
2022/07/27 09:51:26;;;;;;;2.85;2.65;;;26.90;61.50;;;;;;5045119;28;20655;-55
2022/07/27 09:53:54;;;;;;;2.70;2.30;;;26.90;61.60;;;;;;5045483;28;20097;-57
2022/07/27 09:56:30;;;;;;;2.60;2.40;;;26.90;61.70;;;;;;5049239;28;20583;-58
2022/07/27 09:59:01;;;;;;;2.47;2.28;;;26.90;61.70;;;;;;5045021;28;20148;-57
2022/07/27 10:01:33;;;;;;;2.65;2.30;;;26.90;61.80;;;;;;5048708;28;20492;-57
2022/07/27 10:04:07;;;;;;;3.08;2.40;;;26.90;62.00;;;;;;5050809;28;20043;-58
2022/07/27 10:06:33;;;;;;;2.40;2.20;;;26.90;61.90;;;;;;5041790;28;20032;-58
2022/07/27 10:08:59;;;;;;;2.85;2.65;;;26.90;62.00;;;;;;5048356;28;20025;-57
2022/07/27 10:11:26;;;;;;;2.42;2.22;;;26.90;61.80;;;;;;5046321;28;20028;-58
2022/07/27 10:13:53;;;;;;;3.38;2.60;;;26.90;61.70;;;;;;5045546;28;20024;-57
2022/07/27 10:16:26;;;;;;;2.88;2.40;;;26.90;61.80;;;;;;5049639;28;20028;-57
2022/07/27 10:19:04;;;;;;;2.35;2.15;;;26.80;61.90;;;;;;5046605;28;20053;-57
2022/07/27 10:21:34;;;;;;;2.45;2.17;;;26.80;61.90;;;;;;5052100;28;20047;-58
2022/07/27 10:24:05;;;;;;;2.75;2.42;;;26.90;61.90;;;;;;5048559;28;20484;-58
2022/07/27 10:26:34;;;;;;;2.30;2.10;;;26.80;61.90;;;;;;5046327;28;20483;-58
2022/07/27 10:29:05;;;;;;;2.20;2.10;;;26.80;61.80;;;;;;5047435;28;20122;-59
2022/07/27 10:31:33;;;;;;;2.60;2.40;;;26.80;61.50;;;;;;5054493;28;20033;-58
2022/07/27 10:34:01;;;;;;;2.83;2.45;;;26.80;61.70;;;;;;5041844;28;20031;-58
2022/07/27 10:36:29;;;;;;;2.50;2.30;;;26.80;61.60;;;;;;5041666;28;20145;-58
2022/07/27 10:39:00;;;;;;;3.28;2.55;;;26.80;61.40;;;;;;5048777;28;20099;-58
2022/07/27 10:41:28;;;;;;;2.42;2.10;;;26.80;61.40;;;;;;5039314;28;20036;-58
2022/07/27 10:44:20;;;;;;;2.33;2.13;;;26.80;61.50;;;;;;5041956;28;20032;-59
2022/07/27 10:46:59;;;;;;;2.38;2.17;;;26.80;61.60;;;;;;5040412;28;20040;-58
2022/07/27 10:49:33;;;;;;;2.95;2.65;;;26.80;62.50;;;;;;5049068;28;20024;-58
2022/07/27 10:52:00;;;;;;;2.55;2.35;;;26.80;61.70;;;;;;5041989;28;20068;-59
2022/07/27 10:54:37;;;;;;;2.58;2.38;;;26.80;62.60;;;;;;5051978;28;20020;-57
2022/07/27 10:57:08;;;;;;;2.38;2.17;;;26.70;62.60;;;;;;5044787;28;20028;-56
2022/07/27 10:59:41;;;;;;;2.38;2.17;;;26.80;62.00;;;;;;5049755;28;20056;-58
2022/07/27 11:02:11;;;;;;;2.58;2.38;;;26.70;62.10;;;;;;5047512;28;20040;-57
2022/07/27 11:04:50;;;;;;;3.25;2.55;;;26.80;62.30;;;;;;5053141;28;20115;-57
2022/07/27 11:07:21;;;;;;;2.97;2.72;;;26.80;62.40;;;;;;5054854;28;20102;-58
2022/07/27 11:09:50;;;;;;;2.83;2.60;;;26.80;62.20;;;;;;5051043;28;21289;-58
2022/07/27 11:12:16;;;;;;;2.42;2.22;;;26.80;62.30;;;;;;5051526;28;20025;-58
2022/07/27 11:14:53;;;;;;;2.78;2.38;;;26.80;62.40;;;;;;5048031;28;20028;-58
2022/07/27 11:17:24;;;;;;;2.92;2.40;;;26.80;62.50;;;;;;5053127;28;20033;-57
2022/07/27 11:20:00;;;;;;;2.70;2.38;;;26.80;62.30;;;;;;5044023;28;20479;-57
2022/07/27 11:22:37;;;;;;;2.70;2.50;;;26.80;62.30;;;;;;5054408;28;20596;-58
2022/07/27 11:25:04;;;;;;;3.20;2.70;;;26.70;62.50;;;;;;5056737;28;20439;-57
2022/07/27 11:27:30;;;;;;;2.83;2.58;;;26.70;62.50;;;;;;5052760;28;20024;-57
2022/07/27 11:29:56;;;;;;;2.40;2.20;;;26.70;62.50;;;;;;5052001;28;20108;-56
2022/07/27 11:32:23;;;;;;;2.92;2.65;;;26.70;62.50;;;;;;5052126;28;20029;-57
2022/07/27 11:34:49;;;;;;;2.00;1.90;;;26.80;62.70;;;;;;5050434;28;20021;-56
2022/07/27 11:37:18;;;;;;;2.53;2.22;;;26.80;62.70;;;;;;5052584;28;20044;-58
2022/07/27 11:39:45;;;;;;;2.35;2.15;;;26.70;62.70;;;;;;5048533;28;20185;-56
2022/07/27 11:42:13;;;;;;;2.38;2.05;;;26.70;62.70;;;;;;5053568;28;20032;-56
2022/07/27 11:44:41;;;;;;;2.10;2.00;;;26.70;62.70;;;;;;5054030;28;20502;-58
2022/07/27 11:47:07;;;;;;;2.45;2.28;;;26.80;62.60;;;;;;5053007;28;20492;-56
2022/07/27 11:49:33;;;;;;;2.42;2.20;;;26.80;62.80;;;;;;5051749;28;20103;-59
2022/07/27 11:52:05;;;;;;;2.40;2.05;;;26.80;62.80;;;;;;5052733;28;20550;-58
2022/07/27 11:54:34;;;;;;;2.20;2.00;;;26.80;62.90;;;;;;5050426;28;20107;-58
2022/07/27 11:57:03;;;;;;;2.20;2.00;;;26.80;62.90;;;;;;5053133;28;20440;-57
2022/07/27 11:59:37;;;;;;;2.10;1.92;;;26.80;62.80;;;;;;5052477;28;20547;-57
2022/07/27 12:02:08;;;;;;;2.28;2.05;;;26.70;62.60;;;;;;5049328;28;20050;-56
2022/07/27 12:04:39;;;;;;;2.78;2.53;;;26.70;62.50;;;;;;5050355;28;22029;-57
2022/07/27 12:07:09;;;;;;;2.40;2.20;;;26.70;62.40;;;;;;5046008;28;20963;-57
2022/07/27 12:09:38;;;;;;;2.35;2.15;;;26.80;63.10;;;;;;5037690;28;20027;-56
2022/07/27 12:12:09;;;;;;;2.80;2.45;;;26.70;62.50;;;;;;5041895;28;20041;-57
2022/07/27 12:14:36;;;;;;;2.22;2.05;;;26.70;62.30;;;;;;5045651;28;20029;-58
2022/07/27 12:17:17;;;;;;;2.70;2.50;;;26.80;62.40;;;;;;5048122;28;20035;-57
2022/07/27 12:19:52;;;;;;;2.55;2.20;;;26.70;62.30;;;;;;5047846;28;20088;-57
2022/07/27 12:22:42;;;;;;;2.30;2.10;;;26.70;62.40;;;;;;5051952;28;20033;-57
2022/07/27 12:25:28;;;;;;;2.42;2.22;;;26.70;62.40;;;;;;5046817;28;20032;-59
2022/07/27 12:28:09;;;;;;;2.50;2.28;;;26.70;62.50;;;;;;5054190;28;20036;-57
2022/07/27 12:30:50;;;;;;;2.42;2.22;;;26.80;62.70;;;;;;5046393;28;20028;-58
2022/07/27 12:33:36;;;;;;;2.00;1.90;;;26.70;62.70;;;;;;5056244;28;20086;-56
2022/07/27 12:36:06;;;;;;;1.98;1.88;;;26.70;62.80;;;;;;5054250;28;20043;-57
2022/07/27 12:38:44;;;;;;;2.38;2.17;;;26.80;63.00;;;;;;5056210;28;20021;-60
2022/07/27 12:41:21;;;;;;;2.53;2.33;;;26.80;63.20;;;;;;5047919;28;20049;-58
2022/07/27 12:44:08;;;;;;;2.20;2.00;;;26.80;63.00;;;;;;5050272;28;20024;-58
2022/07/27 12:46:51;;;;;;;2.42;2.22;;;26.80;62.90;;;;;;5048849;28;20497;-58
2022/07/27 12:49:17;;;;;;;2.42;2.10;;;26.80;63.10;;;;;;5046354;28;20048;-57
2022/07/27 12:51:43;;;;;;;2.38;2.17;;;26.70;63.10;;;;;;5047310;28;20174;-59
2022/07/27 12:54:08;;;;;;;2.30;2.13;;;26.80;63.30;;;;;;5045980;28;20955;-58
2022/07/27 12:56:34;;;;;;;2.40;2.20;;;26.80;63.20;;;;;;5049895;28;20024;-58
2022/07/27 12:59:01;;;;;;;2.28;2.08;;;26.80;63.20;;;;;;5045208;28;20035;-58